sensor_id;sensor_type;location;lat;lon;timestamp;P1;durP1;ratioP1;P2;durP2;ratioP2
82806;SDS011;72563;44.816;20.484;2024-03-23T00:55:50;32.20;;;16.17;;
82806;SDS011;72563;44.816;20.484;2024-03-23T00:58:16;29.02;;;16.25;;
82806;SDS011;72563;44.816;20.484;2024-03-23T01:00:41;28.52;;;15.98;;
82806;SDS011;72563;44.816;20.484;2024-03-23T01:03:08;31.20;;;17.17;;
82806;SDS011;72563;44.816;20.484;2024-03-23T01:05:35;29.25;;;16.38;;
82806;SDS011;72563;44.816;20.484;2024-03-23T01:08:00;31.33;;;14.50;;
82806;SDS011;72563;44.816;20.484;2024-03-23T01:10:27;28.10;;;15.90;;
82806;SDS011;72563;44.816;20.484;2024-03-23T01:12:52;25.98;;;14.75;;
82806;SDS011;72563;44.816;20.484;2024-03-23T01:15:18;29.70;;;16.92;;
82806;SDS011;72563;44.816;20.484;2024-03-23T01:17:44;25.80;;;15.18;;
82806;SDS011;72563;44.816;20.484;2024-03-23T01:20:09;26.00;;;15.82;;
82806;SDS011;72563;44.816;20.484;2024-03-23T01:22:35;26.65;;;14.68;;
82806;SDS011;72563;44.816;20.484;2024-03-23T01:25:01;26.27;;;15.43;;
82806;SDS011;72563;44.816;20.484;2024-03-23T01:27:27;29.00;;;14.82;;
82806;SDS011;72563;44.816;20.484;2024-03-23T01:29:52;25.65;;;13.80;;
82806;SDS011;72563;44.816;20.484;2024-03-23T01:32:18;26.13;;;14.65;;
82806;SDS011;72563;44.816;20.484;2024-03-23T01:34:44;24.58;;;14.00;;
82806;SDS011;72563;44.816;20.484;2024-03-23T01:37:10;26.17;;;13.88;;
82806;SDS011;72563;44.816;20.484;2024-03-23T01:39:36;24.08;;;13.98;;
82806;SDS011;72563;44.816;20.484;2024-03-23T01:42:03;24.77;;;13.88;;
82806;SDS011;72563;44.816;20.484;2024-03-23T01:44:29;23.80;;;14.10;;
82806;SDS011;72563;44.816;20.484;2024-03-23T01:46:54;21.50;;;13.30;;
82806;SDS011;72563;44.816;20.484;2024-03-23T01:49:20;25.10;;;12.10;;
82806;SDS011;72563;44.816;20.484;2024-03-23T01:51:46;24.75;;;13.77;;
82806;SDS011;72563;44.816;20.484;2024-03-23T01:54:15;23.45;;;12.77;;
82806;SDS011;72563;44.816;20.484;2024-03-23T01:56:41;23.13;;;12.40;;
82806;SDS011;72563;44.816;20.484;2024-03-23T01:59:08;24.17;;;12.40;;
82806;SDS011;72563;44.816;20.484;2024-03-23T02:01:36;24.25;;;13.05;;
82806;SDS011;72563;44.816;20.484;2024-03-23T02:04:02;22.85;;;11.75;;
82806;SDS011;72563;44.816;20.484;2024-03-23T02:06:28;21.98;;;12.90;;
82806;SDS011;72563;44.816;20.484;2024-03-23T02:08:56;23.38;;;12.85;;
82806;SDS011;72563;44.816;20.484;2024-03-23T02:11:24;25.80;;;12.65;;
82806;SDS011;72563;44.816;20.484;2024-03-23T02:13:51;19.88;;;12.77;;
82806;SDS011;72563;44.816;20.484;2024-03-23T02:16:18;21.15;;;11.93;;
82806;SDS011;72563;44.816;20.484;2024-03-23T02:18:45;22.88;;;12.20;;
82806;SDS011;72563;44.816;20.484;2024-03-23T02:21:12;25.48;;;12.30;;
82806;SDS011;72563;44.816;20.484;2024-03-23T02:23:43;21.00;;;11.90;;
82806;SDS011;72563;44.816;20.484;2024-03-23T02:26:08;23.25;;;11.90;;
82806;SDS011;72563;44.816;20.484;2024-03-23T02:28:34;20.95;;;11.68;;
82806;SDS011;72563;44.816;20.484;2024-03-23T02:31:00;21.92;;;12.90;;
82806;SDS011;72563;44.816;20.484;2024-03-23T02:33:26;20.23;;;11.57;;
82806;SDS011;72563;44.816;20.484;2024-03-23T02:35:55;23.35;;;11.70;;
82806;SDS011;72563;44.816;20.484;2024-03-23T02:38:21;26.38;;;13.48;;
82806;SDS011;72563;44.816;20.484;2024-03-23T02:40:47;26.75;;;13.52;;
82806;SDS011;72563;44.816;20.484;2024-03-23T02:43:14;21.75;;;12.75;;
82806;SDS011;72563;44.816;20.484;2024-03-23T02:45:39;20.83;;;12.38;;
82806;SDS011;72563;44.816;20.484;2024-03-23T02:48:06;28.30;;;13.35;;
82806;SDS011;72563;44.816;20.484;2024-03-23T02:50:33;26.10;;;12.48;;
82806;SDS011;72563;44.816;20.484;2024-03-23T02:52:59;24.73;;;12.18;;
82806;SDS011;72563;44.816;20.484;2024-03-23T02:55:24;19.92;;;12.18;;
82806;SDS011;72563;44.816;20.484;2024-03-23T02:57:51;27.10;;;14.77;;
82806;SDS011;72563;44.816;20.484;2024-03-23T03:00:17;24.13;;;13.23;;
82806;SDS011;72563;44.816;20.484;2024-03-23T03:02:43;22.48;;;12.05;;
82806;SDS011;72563;44.816;20.484;2024-03-23T03:05:08;21.00;;;11.65;;
82806;SDS011;72563;44.816;20.484;2024-03-23T03:07:34;23.80;;;11.88;;
82806;SDS011;72563;44.816;20.484;2024-03-23T03:09:59;20.70;;;12.00;;
82806;SDS011;72563;44.816;20.484;2024-03-23T03:12:25;23.83;;;12.63;;
82806;SDS011;72563;44.816;20.484;2024-03-23T03:14:51;24.88;;;12.73;;
82806;SDS011;72563;44.816;20.484;2024-03-23T03:17:17;25.80;;;14.98;;
82806;SDS011;72563;44.816;20.484;2024-03-23T03:19:42;27.92;;;16.17;;
82806;SDS011;72563;44.816;20.484;2024-03-23T03:22:08;30.77;;;17.17;;
82806;SDS011;72563;44.816;20.484;2024-03-23T03:24:34;32.25;;;19.38;;
82806;SDS011;72563;44.816;20.484;2024-03-23T03:26:59;34.03;;;19.90;;
82806;SDS011;72563;44.816;20.484;2024-03-23T03:29:25;34.35;;;19.50;;
82806;SDS011;72563;44.816;20.484;2024-03-23T03:31:51;39.72;;;20.48;;
82806;SDS011;72563;44.816;20.484;2024-03-23T03:34:17;33.78;;;17.38;;
82806;SDS011;72563;44.816;20.484;2024-03-23T03:36:42;36.80;;;18.45;;
82806;SDS011;72563;44.816;20.484;2024-03-23T03:39:09;36.78;;;20.65;;
82806;SDS011;72563;44.816;20.484;2024-03-23T03:41:35;35.42;;;20.73;;
82806;SDS011;72563;44.816;20.484;2024-03-23T03:44:00;35.33;;;20.00;;
82806;SDS011;72563;44.816;20.484;2024-03-23T03:46:28;35.65;;;16.75;;
82806;SDS011;72563;44.816;20.484;2024-03-23T03:48:54;30.05;;;19.05;;
82806;SDS011;72563;44.816;20.484;2024-03-23T03:51:20;36.85;;;20.60;;
82806;SDS011;72563;44.816;20.484;2024-03-23T03:53:46;39.70;;;20.25;;
82806;SDS011;72563;44.816;20.484;2024-03-23T03:56:12;38.97;;;21.50;;
82806;SDS011;72563;44.816;20.484;2024-03-23T03:58:37;40.88;;;21.02;;
82806;SDS011;72563;44.816;20.484;2024-03-23T04:01:03;41.60;;;21.52;;
82806;SDS011;72563;44.816;20.484;2024-03-23T04:03:29;39.22;;;17.98;;
82806;SDS011;72563;44.816;20.484;2024-03-23T04:05:55;35.05;;;20.48;;
82806;SDS011;72563;44.816;20.484;2024-03-23T04:08:21;40.58;;;20.92;;
82806;SDS011;72563;44.816;20.484;2024-03-23T04:10:47;36.38;;;20.58;;
82806;SDS011;72563;44.816;20.484;2024-03-23T04:13:13;43.40;;;22.63;;
82806;SDS011;72563;44.816;20.484;2024-03-23T04:15:39;45.58;;;23.60;;
82806;SDS011;72563;44.816;20.484;2024-03-23T04:18:04;44.15;;;24.08;;
82806;SDS011;72563;44.816;20.484;2024-03-23T04:20:30;44.22;;;24.90;;
82806;SDS011;72563;44.816;20.484;2024-03-23T04:22:57;44.13;;;23.45;;
82806;SDS011;72563;44.816;20.484;2024-03-23T04:25:27;47.55;;;24.85;;
82806;SDS011;72563;44.816;20.484;2024-03-23T04:27:52;45.67;;;24.67;;
82806;SDS011;72563;44.816;20.484;2024-03-23T04:30:18;45.90;;;23.52;;
82806;SDS011;72563;44.816;20.484;2024-03-23T04:32:47;42.17;;;24.98;;
82806;SDS011;72563;44.816;20.484;2024-03-23T04:35:14;41.45;;;23.15;;
82806;SDS011;72563;44.816;20.484;2024-03-23T04:37:40;37.55;;;22.92;;
82806;SDS011;72563;44.816;20.484;2024-03-23T04:40:06;41.17;;;21.58;;
82806;SDS011;72563;44.816;20.484;2024-03-23T04:42:33;44.97;;;21.90;;
82806;SDS011;72563;44.816;20.484;2024-03-23T04:44:59;37.55;;;22.00;;
82806;SDS011;72563;44.816;20.484;2024-03-23T04:47:26;41.72;;;21.55;;
82806;SDS011;72563;44.816;20.484;2024-03-23T04:49:52;42.85;;;22.10;;
82806;SDS011;72563;44.816;20.484;2024-03-23T04:52:17;37.35;;;20.85;;
82806;SDS011;72563;44.816;20.484;2024-03-23T04:54:43;36.70;;;20.90;;
82806;SDS011;72563;44.816;20.484;2024-03-23T04:57:11;35.30;;;20.98;;
82806;SDS011;72563;44.816;20.484;2024-03-23T04:59:37;37.08;;;21.60;;
82806;SDS011;72563;44.816;20.484;2024-03-23T05:02:02;35.97;;;21.25;;
82806;SDS011;72563;44.816;20.484;2024-03-23T05:04:28;36.63;;;20.65;;
82806;SDS011;72563;44.816;20.484;2024-03-23T05:06:54;39.75;;;21.42;;
82806;SDS011;72563;44.816;20.484;2024-03-23T05:09:20;38.55;;;20.75;;
82806;SDS011;72563;44.816;20.484;2024-03-23T05:11:46;40.20;;;20.52;;
82806;SDS011;72563;44.816;20.484;2024-03-23T05:14:13;39.50;;;22.23;;
82806;SDS011;72563;44.816;20.484;2024-03-23T05:16:39;35.63;;;20.30;;
82806;SDS011;72563;44.816;20.484;2024-03-23T05:19:07;39.50;;;20.55;;
82806;SDS011;72563;44.816;20.484;2024-03-23T05:21:33;37.58;;;18.60;;
82806;SDS011;72563;44.816;20.484;2024-03-23T05:24:00;36.00;;;20.63;;
82806;SDS011;72563;44.816;20.484;2024-03-23T05:26:25;34.47;;;19.63;;
82806;SDS011;72563;44.816;20.484;2024-03-23T05:28:51;36.47;;;16.73;;
82806;SDS011;72563;44.816;20.484;2024-03-23T05:31:26;38.72;;;19.60;;
82806;SDS011;72563;44.816;20.484;2024-03-23T05:33:53;37.70;;;18.15;;
82806;SDS011;72563;44.816;20.484;2024-03-23T05:36:19;38.42;;;21.30;;
82806;SDS011;72563;44.816;20.484;2024-03-23T05:38:45;32.75;;;18.75;;
82806;SDS011;72563;44.816;20.484;2024-03-23T05:41:11;39.22;;;20.65;;
82806;SDS011;72563;44.816;20.484;2024-03-23T05:43:37;39.65;;;20.73;;
82806;SDS011;72563;44.816;20.484;2024-03-23T05:46:04;46.22;;;23.30;;
82806;SDS011;72563;44.816;20.484;2024-03-23T05:48:31;35.08;;;18.75;;
82806;SDS011;72563;44.816;20.484;2024-03-23T05:50:57;41.72;;;21.42;;
82806;SDS011;72563;44.816;20.484;2024-03-23T05:53:23;40.28;;;21.80;;
82806;SDS011;72563;44.816;20.484;2024-03-23T05:55:49;39.17;;;22.73;;
82806;SDS011;72563;44.816;20.484;2024-03-23T05:58:16;36.90;;;23.10;;
82806;SDS011;72563;44.816;20.484;2024-03-23T06:00:42;44.55;;;25.25;;
82806;SDS011;72563;44.816;20.484;2024-03-23T06:03:08;39.78;;;22.50;;
82806;SDS011;72563;44.816;20.484;2024-03-23T06:05:35;39.15;;;23.73;;
82806;SDS011;72563;44.816;20.484;2024-03-23T06:08:01;44.58;;;24.92;;
82806;SDS011;72563;44.816;20.484;2024-03-23T06:10:27;37.65;;;23.67;;
82806;SDS011;72563;44.816;20.484;2024-03-23T06:12:53;34.40;;;21.27;;
82806;SDS011;72563;44.816;20.484;2024-03-23T06:15:19;40.47;;;23.27;;
82806;SDS011;72563;44.816;20.484;2024-03-23T06:17:44;35.80;;;22.92;;
82806;SDS011;72563;44.816;20.484;2024-03-23T06:20:10;36.80;;;21.52;;
82806;SDS011;72563;44.816;20.484;2024-03-23T06:22:36;41.20;;;24.55;;
82806;SDS011;72563;44.816;20.484;2024-03-23T06:25:02;39.78;;;25.02;;
82806;SDS011;72563;44.816;20.484;2024-03-23T06:27:28;40.40;;;24.00;;
82806;SDS011;72563;44.816;20.484;2024-03-23T06:29:54;38.75;;;22.38;;
82806;SDS011;72563;44.816;20.484;2024-03-23T06:32:20;41.83;;;22.02;;
82806;SDS011;72563;44.816;20.484;2024-03-23T06:34:46;34.75;;;20.17;;
82806;SDS011;72563;44.816;20.484;2024-03-23T06:37:12;43.45;;;20.70;;
82806;SDS011;72563;44.816;20.484;2024-03-23T06:39:38;34.42;;;19.55;;
82806;SDS011;72563;44.816;20.484;2024-03-23T06:42:04;38.63;;;22.88;;
82806;SDS011;72563;44.816;20.484;2024-03-23T06:44:30;40.47;;;24.23;;
82806;SDS011;72563;44.816;20.484;2024-03-23T06:46:56;42.05;;;24.05;;
82806;SDS011;72563;44.816;20.484;2024-03-23T06:49:23;40.15;;;22.88;;
82806;SDS011;72563;44.816;20.484;2024-03-23T06:51:48;36.78;;;22.73;;
82806;SDS011;72563;44.816;20.484;2024-03-23T06:54:15;41.67;;;23.85;;
82806;SDS011;72563;44.816;20.484;2024-03-23T06:56:41;40.30;;;24.65;;
82806;SDS011;72563;44.816;20.484;2024-03-23T06:59:07;39.83;;;23.38;;
82806;SDS011;72563;44.816;20.484;2024-03-23T07:01:34;38.35;;;25.23;;
82806;SDS011;72563;44.816;20.484;2024-03-23T07:04:00;41.13;;;24.52;;
82806;SDS011;72563;44.816;20.484;2024-03-23T07:06:25;44.92;;;23.45;;
82806;SDS011;72563;44.816;20.484;2024-03-23T07:08:52;42.08;;;23.20;;
82806;SDS011;72563;44.816;20.484;2024-03-23T07:11:20;39.53;;;23.75;;
82806;SDS011;72563;44.816;20.484;2024-03-23T07:13:49;40.67;;;20.73;;
82806;SDS011;72563;44.816;20.484;2024-03-23T07:16:15;41.10;;;22.92;;
82806;SDS011;72563;44.816;20.484;2024-03-23T07:18:43;35.53;;;22.10;;
82806;SDS011;72563;44.816;20.484;2024-03-23T07:23:34;39.58;;;22.40;;
82806;SDS011;72563;44.816;20.484;2024-03-23T07:26:00;33.45;;;22.35;;
82806;SDS011;72563;44.816;20.484;2024-03-23T07:28:28;33.15;;;20.90;;
82806;SDS011;72563;44.816;20.484;2024-03-23T07:31:15;29.95;;;20.30;;
82806;SDS011;72563;44.816;20.484;2024-03-23T07:33:47;39.80;;;22.13;;
82806;SDS011;72563;44.816;20.484;2024-03-23T07:38:40;32.58;;;18.77;;
82806;SDS011;72563;44.816;20.484;2024-03-23T07:43:37;29.50;;;17.75;;
82806;SDS011;72563;44.816;20.484;2024-03-23T07:46:06;30.95;;;18.42;;
82806;SDS011;72563;44.816;20.484;2024-03-23T07:48:32;25.42;;;17.42;;
82806;SDS011;72563;44.816;20.484;2024-03-23T07:50:59;30.30;;;18.83;;
82806;SDS011;72563;44.816;20.484;2024-03-23T07:53:25;28.25;;;18.42;;
82806;SDS011;72563;44.816;20.484;2024-03-23T07:55:55;29.42;;;17.23;;
82806;SDS011;72563;44.816;20.484;2024-03-23T07:58:21;27.75;;;17.58;;
82806;SDS011;72563;44.816;20.484;2024-03-23T08:00:47;27.05;;;14.38;;
82806;SDS011;72563;44.816;20.484;2024-03-23T08:03:13;31.08;;;17.70;;
82806;SDS011;72563;44.816;20.484;2024-03-23T08:05:38;25.00;;;14.82;;
82806;SDS011;72563;44.816;20.484;2024-03-23T08:08:06;23.75;;;16.00;;
82806;SDS011;72563;44.816;20.484;2024-03-23T08:10:32;24.65;;;14.75;;
82806;SDS011;72563;44.816;20.484;2024-03-23T08:12:58;26.38;;;15.27;;
82806;SDS011;72563;44.816;20.484;2024-03-23T08:15:23;16.20;;;9.65;;
82806;SDS011;72563;44.816;20.484;2024-03-23T08:17:49;17.60;;;10.60;;
82806;SDS011;72563;44.816;20.484;2024-03-23T08:20:15;23.48;;;14.75;;
82806;SDS011;72563;44.816;20.484;2024-03-23T08:22:41;18.60;;;12.07;;
82806;SDS011;72563;44.816;20.484;2024-03-23T08:25:07;15.30;;;8.55;;
82806;SDS011;72563;44.816;20.484;2024-03-23T08:27:32;14.10;;;8.18;;
82806;SDS011;72563;44.816;20.484;2024-03-23T08:29:58;19.10;;;10.80;;
82806;SDS011;72563;44.816;20.484;2024-03-23T08:32:24;13.95;;;9.10;;
82806;SDS011;72563;44.816;20.484;2024-03-23T08:34:49;11.43;;;8.10;;
82806;SDS011;72563;44.816;20.484;2024-03-23T08:37:15;16.58;;;12.45;;
82806;SDS011;72563;44.816;20.484;2024-03-23T08:39:43;24.40;;;14.10;;
82806;SDS011;72563;44.816;20.484;2024-03-23T08:42:09;16.77;;;9.73;;
82806;SDS011;72563;44.816;20.484;2024-03-23T08:44:34;18.20;;;12.02;;
82806;SDS011;72563;44.816;20.484;2024-03-23T08:47:01;20.63;;;12.40;;
82806;SDS011;72563;44.816;20.484;2024-03-23T08:49:27;20.88;;;10.75;;
82806;SDS011;72563;44.816;20.484;2024-03-23T08:51:53;18.90;;;13.25;;
82806;SDS011;72563;44.816;20.484;2024-03-23T08:54:19;17.52;;;12.55;;
82806;SDS011;72563;44.816;20.484;2024-03-23T08:56:47;13.82;;;9.50;;
82806;SDS011;72563;44.816;20.484;2024-03-23T08:59:13;11.68;;;6.53;;
82806;SDS011;72563;44.816;20.484;2024-03-23T09:01:38;10.43;;;7.15;;
82806;SDS011;72563;44.816;20.484;2024-03-23T09:04:04;10.27;;;6.13;;
82806;SDS011;72563;44.816;20.484;2024-03-23T09:06:30;10.23;;;7.05;;
82806;SDS011;72563;44.816;20.484;2024-03-23T09:08:56;10.90;;;6.85;;
82806;SDS011;72563;44.816;20.484;2024-03-23T09:11:21;10.20;;;6.43;;
82806;SDS011;72563;44.816;20.484;2024-03-23T09:13:47;9.40;;;6.35;;
82806;SDS011;72563;44.816;20.484;2024-03-23T09:16:13;8.90;;;6.47;;
82806;SDS011;72563;44.816;20.484;2024-03-23T09:18:38;10.18;;;6.50;;
82806;SDS011;72563;44.816;20.484;2024-03-23T09:21:14;11.95;;;8.18;;
82806;SDS011;72563;44.816;20.484;2024-03-23T09:23:42;12.93;;;8.52;;
82806;SDS011;72563;44.816;20.484;2024-03-23T09:26:08;14.60;;;8.43;;
82806;SDS011;72563;44.816;20.484;2024-03-23T09:28:35;13.40;;;8.13;;
82806;SDS011;72563;44.816;20.484;2024-03-23T09:31:03;12.93;;;8.25;;
82806;SDS011;72563;44.816;20.484;2024-03-23T09:33:31;11.77;;;8.18;;
82806;SDS011;72563;44.816;20.484;2024-03-23T09:38:22;9.85;;;4.60;;
82806;SDS011;72563;44.816;20.484;2024-03-23T09:40:52;7.90;;;5.47;;
82806;SDS011;72563;44.816;20.484;2024-03-23T09:43:18;7.85;;;5.03;;
82806;SDS011;72563;44.816;20.484;2024-03-23T09:45:45;8.68;;;4.75;;
82806;SDS011;72563;44.816;20.484;2024-03-23T09:48:11;8.15;;;4.68;;
82806;SDS011;72563;44.816;20.484;2024-03-23T09:50:38;8.82;;;5.80;;
82806;SDS011;72563;44.816;20.484;2024-03-23T09:53:11;9.63;;;5.30;;
82806;SDS011;72563;44.816;20.484;2024-03-23T09:55:42;9.73;;;5.72;;
82806;SDS011;72563;44.816;20.484;2024-03-23T09:58:12;8.98;;;5.35;;
82806;SDS011;72563;44.816;20.484;2024-03-23T10:00:39;8.77;;;5.38;;
82806;SDS011;72563;44.816;20.484;2024-03-23T10:03:04;7.43;;;5.10;;
82806;SDS011;72563;44.816;20.484;2024-03-23T10:05:31;9.27;;;6.00;;
82806;SDS011;72563;44.816;20.484;2024-03-23T10:10:38;10.88;;;5.90;;
82806;SDS011;72563;44.816;20.484;2024-03-23T10:13:04;8.95;;;5.07;;
82806;SDS011;72563;44.816;20.484;2024-03-23T10:15:30;8.20;;;5.50;;
82806;SDS011;72563;44.816;20.484;2024-03-23T10:18:06;8.23;;;5.25;;
82806;SDS011;72563;44.816;20.484;2024-03-23T10:20:45;8.77;;;4.93;;
82806;SDS011;72563;44.816;20.484;2024-03-23T10:23:16;14.30;;;9.25;;
82806;SDS011;72563;44.816;20.484;2024-03-23T10:25:42;7.68;;;4.00;;
82806;SDS011;72563;44.816;20.484;2024-03-23T10:28:08;8.23;;;5.07;;
82806;SDS011;72563;44.816;20.484;2024-03-23T10:30:35;15.25;;;9.15;;
82806;SDS011;72563;44.816;20.484;2024-03-23T10:33:10;28.40;;;18.20;;
82806;SDS011;72563;44.816;20.484;2024-03-23T10:35:37;25.67;;;16.95;;
82806;SDS011;72563;44.816;20.484;2024-03-23T10:38:06;7.03;;;4.30;;
82806;SDS011;72563;44.816;20.484;2024-03-23T10:40:36;14.52;;;9.32;;
82806;SDS011;72563;44.816;20.484;2024-03-23T10:43:03;17.88;;;11.43;;
82806;SDS011;72563;44.816;20.484;2024-03-23T10:45:30;16.17;;;10.10;;
82806;SDS011;72563;44.816;20.484;2024-03-23T10:47:56;9.13;;;6.10;;
82806;SDS011;72563;44.816;20.484;2024-03-23T10:50:22;7.32;;;4.80;;
82806;SDS011;72563;44.816;20.484;2024-03-23T10:52:48;9.23;;;4.95;;
82806;SDS011;72563;44.816;20.484;2024-03-23T10:55:15;16.60;;;11.57;;
82806;SDS011;72563;44.816;20.484;2024-03-23T10:57:45;13.65;;;9.07;;
82806;SDS011;72563;44.816;20.484;2024-03-23T11:00:15;10.38;;;6.05;;
82806;SDS011;72563;44.816;20.484;2024-03-23T11:02:41;10.57;;;5.53;;
82806;SDS011;72563;44.816;20.484;2024-03-23T11:08:11;7.97;;;4.15;;
82806;SDS011;72563;44.816;20.484;2024-03-23T11:11:11;7.70;;;4.28;;
82806;SDS011;72563;44.816;20.484;2024-03-23T11:13:44;7.63;;;4.13;;
82806;SDS011;72563;44.816;20.484;2024-03-23T11:16:16;7.53;;;3.75;;
82806;SDS011;72563;44.816;20.484;2024-03-23T11:19:36;9.40;;;4.18;;
82806;SDS011;72563;44.816;20.484;2024-03-23T11:22:05;8.57;;;4.13;;
82806;SDS011;72563;44.816;20.484;2024-03-23T11:24:31;6.38;;;3.38;;
82806;SDS011;72563;44.816;20.484;2024-03-23T11:26:57;8.02;;;3.95;;
82806;SDS011;72563;44.816;20.484;2024-03-23T11:29:29;6.40;;;3.45;;
82806;SDS011;72563;44.816;20.484;2024-03-23T11:31:55;7.65;;;3.45;;
82806;SDS011;72563;44.816;20.484;2024-03-23T11:34:21;9.15;;;3.50;;
82806;SDS011;72563;44.816;20.484;2024-03-23T11:36:47;7.15;;;3.75;;
82806;SDS011;72563;44.816;20.484;2024-03-23T11:39:17;5.85;;;2.72;;
82806;SDS011;72563;44.816;20.484;2024-03-23T11:44:20;5.57;;;3.13;;
82806;SDS011;72563;44.816;20.484;2024-03-23T11:46:49;6.65;;;3.58;;
82806;SDS011;72563;44.816;20.484;2024-03-23T11:49:21;6.32;;;3.42;;
82806;SDS011;72563;44.816;20.484;2024-03-23T11:51:54;6.43;;;3.58;;
82806;SDS011;72563;44.816;20.484;2024-03-23T11:54:21;5.82;;;3.17;;
82806;SDS011;72563;44.816;20.484;2024-03-23T11:56:57;7.07;;;3.40;;
82806;SDS011;72563;44.816;20.484;2024-03-23T11:59:30;5.55;;;3.25;;
82806;SDS011;72563;44.816;20.484;2024-03-23T12:01:58;6.82;;;3.40;;
82806;SDS011;72563;44.816;20.484;2024-03-23T12:04:27;6.60;;;3.42;;
82806;SDS011;72563;44.816;20.484;2024-03-23T12:07:11;5.78;;;3.15;;
82806;SDS011;72563;44.816;20.484;2024-03-23T12:09:44;8.15;;;3.33;;
82806;SDS011;72563;44.816;20.484;2024-03-23T12:14:44;6.35;;;3.53;;
82806;SDS011;72563;44.816;20.484;2024-03-23T12:17:25;7.07;;;4.22;;
82806;SDS011;72563;44.816;20.484;2024-03-23T12:19:51;7.97;;;3.15;;
82806;SDS011;72563;44.816;20.484;2024-03-23T12:22:21;6.35;;;3.88;;
82806;SDS011;72563;44.816;20.484;2024-03-23T12:24:47;6.88;;;3.80;;
82806;SDS011;72563;44.816;20.484;2024-03-23T12:27:13;7.97;;;3.35;;
82806;SDS011;72563;44.816;20.484;2024-03-23T12:29:39;6.15;;;3.08;;
82806;SDS011;72563;44.816;20.484;2024-03-23T12:32:07;7.13;;;4.18;;
82806;SDS011;72563;44.816;20.484;2024-03-23T12:34:32;6.95;;;3.90;;
82806;SDS011;72563;44.816;20.484;2024-03-23T12:36:58;7.22;;;3.72;;
82806;SDS011;72563;44.816;20.484;2024-03-23T12:39:24;7.05;;;3.65;;
82806;SDS011;72563;44.816;20.484;2024-03-23T12:41:50;8.52;;;5.05;;
82806;SDS011;72563;44.816;20.484;2024-03-23T12:44:17;6.78;;;3.17;;
82806;SDS011;72563;44.816;20.484;2024-03-23T12:46:43;7.22;;;4.15;;
82806;SDS011;72563;44.816;20.484;2024-03-23T12:49:10;8.57;;;4.55;;
82806;SDS011;72563;44.816;20.484;2024-03-23T12:51:36;8.18;;;3.53;;
82806;SDS011;72563;44.816;20.484;2024-03-23T12:54:02;8.43;;;5.10;;
82806;SDS011;72563;44.816;20.484;2024-03-23T12:56:28;9.07;;;4.25;;
82806;SDS011;72563;44.816;20.484;2024-03-23T12:58:54;8.20;;;4.15;;
82806;SDS011;72563;44.816;20.484;2024-03-23T13:01:24;9.32;;;4.75;;
82806;SDS011;72563;44.816;20.484;2024-03-23T13:03:51;9.57;;;4.45;;
82806;SDS011;72563;44.816;20.484;2024-03-23T13:06:18;9.80;;;5.82;;
82806;SDS011;72563;44.816;20.484;2024-03-23T13:08:44;10.75;;;5.93;;
82806;SDS011;72563;44.816;20.484;2024-03-23T13:11:12;9.05;;;5.50;;
82806;SDS011;72563;44.816;20.484;2024-03-23T13:16:04;7.07;;;4.32;;
82806;SDS011;72563;44.816;20.484;2024-03-23T13:18:31;7.32;;;4.25;;
82806;SDS011;72563;44.816;20.484;2024-03-23T13:20:57;8.07;;;3.95;;
82806;SDS011;72563;44.816;20.484;2024-03-23T13:23:23;7.45;;;4.13;;
82806;SDS011;72563;44.816;20.484;2024-03-23T13:25:56;8.18;;;4.95;;
82806;SDS011;72563;44.816;20.484;2024-03-23T13:28:22;8.45;;;4.20;;
82806;SDS011;72563;44.816;20.484;2024-03-23T13:33:17;6.88;;;4.00;;
82806;SDS011;72563;44.816;20.484;2024-03-23T13:35:49;7.03;;;4.05;;
82806;SDS011;72563;44.816;20.484;2024-03-23T13:38:18;7.40;;;4.20;;
82806;SDS011;72563;44.816;20.484;2024-03-23T13:43:23;10.60;;;6.00;;
82806;SDS011;72563;44.816;20.484;2024-03-23T13:45:55;8.07;;;4.72;;
82806;SDS011;72563;44.816;20.484;2024-03-23T13:48:37;12.57;;;7.38;;
82806;SDS011;72563;44.816;20.484;2024-03-23T13:51:03;9.52;;;5.95;;
82806;SDS011;72563;44.816;20.484;2024-03-23T13:53:30;6.50;;;3.95;;
82806;SDS011;72563;44.816;20.484;2024-03-23T13:55:58;6.95;;;4.03;;
82806;SDS011;72563;44.816;20.484;2024-03-23T13:58:24;7.15;;;4.00;;
82806;SDS011;72563;44.816;20.484;2024-03-23T14:00:50;7.57;;;4.20;;
82806;SDS011;72563;44.816;20.484;2024-03-23T14:03:16;6.95;;;4.47;;
82806;SDS011;72563;44.816;20.484;2024-03-23T14:05:43;7.20;;;4.18;;
82806;SDS011;72563;44.816;20.484;2024-03-23T14:08:09;8.52;;;3.88;;
82806;SDS011;72563;44.816;20.484;2024-03-23T14:10:36;6.90;;;4.50;;
82806;SDS011;72563;44.816;20.484;2024-03-23T14:13:06;6.85;;;3.58;;
82806;SDS011;72563;44.816;20.484;2024-03-23T14:15:31;8.38;;;4.47;;
82806;SDS011;72563;44.816;20.484;2024-03-23T14:17:57;6.30;;;3.33;;
82806;SDS011;72563;44.816;20.484;2024-03-23T14:20:23;6.65;;;4.28;;
82806;SDS011;72563;44.816;20.484;2024-03-23T14:22:49;7.60;;;3.80;;
82806;SDS011;72563;44.816;20.484;2024-03-23T14:25:15;6.20;;;3.67;;
82806;SDS011;72563;44.816;20.484;2024-03-23T14:27:45;6.97;;;4.28;;
82806;SDS011;72563;44.816;20.484;2024-03-23T14:30:11;10.50;;;4.90;;
82806;SDS011;72563;44.816;20.484;2024-03-23T14:32:39;7.22;;;4.05;;
82806;SDS011;72563;44.816;20.484;2024-03-23T14:35:06;6.72;;;3.83;;
82806;SDS011;72563;44.816;20.484;2024-03-23T14:37:36;7.72;;;4.43;;
82806;SDS011;72563;44.816;20.484;2024-03-23T14:40:02;8.43;;;4.60;;
82806;SDS011;72563;44.816;20.484;2024-03-23T14:42:28;7.40;;;4.10;;
82806;SDS011;72563;44.816;20.484;2024-03-23T14:44:54;8.82;;;4.57;;
82806;SDS011;72563;44.816;20.484;2024-03-23T14:47:19;7.07;;;4.20;;
82806;SDS011;72563;44.816;20.484;2024-03-23T14:49:46;7.53;;;4.15;;
82806;SDS011;72563;44.816;20.484;2024-03-23T14:52:15;6.60;;;4.25;;
82806;SDS011;72563;44.816;20.484;2024-03-23T14:54:44;7.05;;;3.90;;
82806;SDS011;72563;44.816;20.484;2024-03-23T14:57:11;8.25;;;4.20;;
82806;SDS011;72563;44.816;20.484;2024-03-23T14:59:37;7.80;;;4.50;;
82806;SDS011;72563;44.816;20.484;2024-03-23T15:02:06;7.93;;;4.32;;
82806;SDS011;72563;44.816;20.484;2024-03-23T15:04:34;6.53;;;3.55;;
82806;SDS011;72563;44.816;20.484;2024-03-23T15:07:00;7.15;;;3.70;;
82806;SDS011;72563;44.816;20.484;2024-03-23T15:09:26;6.82;;;4.00;;
82806;SDS011;72563;44.816;20.484;2024-03-23T15:11:52;6.72;;;4.00;;
82806;SDS011;72563;44.816;20.484;2024-03-23T15:14:21;6.28;;;3.90;;
82806;SDS011;72563;44.816;20.484;2024-03-23T15:16:46;6.28;;;3.50;;
82806;SDS011;72563;44.816;20.484;2024-03-23T15:19:14;7.35;;;3.80;;
82806;SDS011;72563;44.816;20.484;2024-03-23T15:21:42;6.50;;;4.05;;
82806;SDS011;72563;44.816;20.484;2024-03-23T15:24:08;6.90;;;3.97;;
82806;SDS011;72563;44.816;20.484;2024-03-23T15:26:36;6.60;;;3.65;;
82806;SDS011;72563;44.816;20.484;2024-03-23T15:29:02;6.97;;;4.28;;
82806;SDS011;72563;44.816;20.484;2024-03-23T15:31:28;8.13;;;4.13;;
82806;SDS011;72563;44.816;20.484;2024-03-23T15:33:57;8.05;;;4.50;;
82806;SDS011;72563;44.816;20.484;2024-03-23T15:36:23;8.48;;;4.43;;
82806;SDS011;72563;44.816;20.484;2024-03-23T15:38:49;6.68;;;4.30;;
82806;SDS011;72563;44.816;20.484;2024-03-23T15:41:15;7.15;;;3.80;;